Hovedside
METAR-TAF:

METAR-TAF

Lufthavner :

Yeovilton, England

breddegrad: 51-00N, lengdegrad: 002-38W, høyde over havet: 23 m

Gjeldene værobservasjon

Denne rapporten ble laget for 22 minutter siden, klokken 13:20 UTC
Vind 7 kt fra Sør
Temperatur 25°C
Luftfuktighet 57%
Trykk 1019 hPa
Sikt 10 km eller mer
Få skyer i en høyde av 3500 ft
Spredte skyer i en høyde av 4500 ft

METAR: EGDY 181320Z 17007KT 9999 FEW035 SCT045 25/16 Q1019 NOSIG RMK BLU BLU

Tid: 14:42 (13:42 UTC)

Varsel

Denne rapporten ble laget for 1 time og 35 minutter siden, klokken 12:07 UTC
Varsel gyldig fra 18. klokken 12 UTC til 18. klokken 21 UTC
Vind 5 kt fra Sør-sørøst
Sikt 10 km eller mer
Spredte skyer i en høyde av 4000 ft
Blir
fra 18. klokken 13 UTC til 18. klokken 15 UTC
Vind 10 kt fra Sør-sørvest

TAF: EGDY 181207Z 1812/1821 15005KT 9999 SCT040 BECMG 1813/1815 20010KT

Værobservasjoner og værvarsel for over 4000 flyplasser (METAR- og TAF-rapporter).

Tilgjengelige stasjoner er representert av de røde og gule prikkene på kartet.

Hold musepekeren over prikken for å se navnet på stasjonen.

Klikk så for å se værobservasjoner og -varsler.

For å forandre kartet kan du klikke på den grønne knappen med svart kryss for å zoome inn, på den grønne knappen med strek for å zoome ut, eller på de grønne pilene for å se tilstøtende kart.


METAR-TAF: